createdAt,value
2018-07-05T00:02:23.457Z,12.93
2018-07-05T00:05:03.223Z,12.37
2018-07-05T00:07:43.119Z,13.90
2018-07-05T00:10:23.055Z,12.30
2018-07-05T00:13:02.864Z,12.90
2018-07-05T00:15:42.647Z,12.23
2018-07-05T00:18:22.692Z,12.03
2018-07-05T00:21:02.515Z,11.53
2018-07-05T00:23:42.648Z,11.93
2018-07-05T00:26:22.485Z,12.07
2018-07-05T00:29:02.534Z,14.83
2018-07-05T00:31:42.391Z,13.03
2018-07-05T00:34:22.340Z,13.43
2018-07-05T00:37:02.236Z,14.37
2018-07-05T00:39:42.227Z,15.60
2018-07-05T00:42:22.136Z,14.77
2018-07-05T00:45:02.324Z,14.47
2018-07-05T00:47:42.179Z,15.37
2018-07-05T00:50:22.212Z,14.77
2018-07-05T00:53:01.972Z,15.40
2018-07-05T00:55:41.652Z,14.97
2018-07-05T00:58:21.407Z,13.50
2018-07-05T01:01:01.200Z,14.17
2018-07-05T01:03:40.836Z,14.87
2018-07-05T01:06:20.591Z,14.80
2018-07-05T01:09:00.550Z,14.90
2018-07-05T01:11:40.788Z,14.27
2018-07-05T01:14:20.618Z,15.73
2018-07-05T01:17:00.909Z,15.13
2018-07-05T01:19:41.036Z,15.27
2018-07-05T01:22:21.607Z,13.80
2018-07-05T01:25:01.491Z,14.70
2018-07-05T01:27:41.237Z,13.97
2018-07-05T01:30:21.143Z,15.17
2018-07-05T01:33:01.097Z,13.93
2018-07-05T01:35:40.838Z,13.80
2018-07-05T01:38:20.823Z,13.67
2018-07-05T01:41:01.011Z,16.07
2018-07-05T01:43:41.108Z,15.57
2018-07-05T01:46:21.047Z,14.27
2018-07-05T01:49:01.224Z,15.30
2018-07-05T01:51:40.939Z,15.80
2018-07-05T01:54:21.008Z,14.80
2018-07-05T01:57:00.715Z,16.10
2018-07-05T01:59:41.219Z,16.43
2018-07-05T02:02:20.896Z,17.63
2018-07-05T02:05:00.904Z,16.70
2018-07-05T02:07:40.604Z,17.43
2018-07-05T02:10:20.672Z,15.10
2018-07-05T02:13:00.379Z,15.63
2018-07-05T02:15:40.511Z,16.00
2018-07-05T02:18:20.436Z,16.60
2018-07-05T02:21:00.404Z,13.53
2018-07-05T02:23:40.128Z,15.70
2018-07-05T02:26:19.940Z,14.40
2018-07-05T02:28:59.764Z,13.50
2018-07-05T02:31:39.936Z,15.80
2018-07-05T02:34:19.756Z,15.60
2018-07-05T02:36:59.559Z,14.53
2018-07-05T02:39:44.580Z,13.70
2018-07-05T02:42:24.707Z,14.20
2018-07-05T02:45:04.589Z,14.10
2018-07-05T02:47:44.347Z,15.63
2018-07-05T02:50:24.167Z,15.23
2018-07-05T02:53:04.009Z,14.47
2018-07-05T02:55:43.770Z,14.83
2018-07-05T02:58:23.597Z,13.73
2018-07-05T03:01:04.256Z,14.23
2018-07-05T03:03:44.028Z,13.30
2018-07-05T03:06:23.891Z,13.90
2018-07-05T03:09:05.053Z,14.30
2018-07-05T03:11:44.876Z,13.80
2018-07-05T03:14:24.814Z,13.73
2018-07-05T03:17:04.625Z,13.70
2018-07-05T03:19:44.389Z,14.10
2018-07-05T03:22:24.142Z,14.17
2018-07-05T03:25:04.137Z,13.97
2018-07-05T03:27:43.929Z,15.37
2018-07-05T03:30:24.019Z,13.37
2018-07-05T03:33:03.728Z,13.97
2018-07-05T03:35:43.707Z,13.37
2018-07-05T03:38:23.312Z,13.43
2018-07-05T03:41:03.153Z,13.60
2018-07-05T03:43:42.781Z,12.93
2018-07-05T03:46:22.996Z,14.03
2018-07-05T03:49:02.832Z,13.37
2018-07-05T03:51:42.783Z,14.07
2018-07-05T03:54:22.555Z,13.43
2018-07-05T03:57:02.600Z,13.63
2018-07-05T03:59:42.473Z,12.70
2018-07-05T04:02:22.184Z,13.10
2018-07-05T04:05:01.905Z,11.33
2018-07-05T04:07:41.743Z,11.40
2018-07-05T04:10:21.512Z,11.77
2018-07-05T04:13:01.471Z,11.27
2018-07-05T04:15:41.349Z,11.03
2018-07-05T04:18:21.180Z,11.23
2018-07-05T04:21:01.039Z,12.03
2018-07-05T04:23:40.864Z,12.00
2018-07-05T04:26:20.792Z,12.27
2018-07-05T04:29:00.855Z,12.00
2018-07-05T04:31:40.791Z,11.10
2018-07-05T04:34:20.721Z,12.37
2018-07-05T04:37:00.376Z,10.60
2018-07-05T04:39:40.300Z,11.70
2018-07-05T04:42:20.076Z,13.13
2018-07-05T04:44:59.896Z,11.73
2018-07-05T04:47:40.084Z,11.70
2018-07-05T04:50:20.372Z,12.07
2018-07-05T04:53:00.332Z,11.00
2018-07-05T04:55:40.624Z,10.53
2018-07-05T04:58:20.426Z,10.67
2018-07-05T05:01:00.121Z,11.40
2018-07-05T05:03:39.927Z,11.73
2018-07-05T05:06:20.060Z,13.17
2018-07-05T05:08:59.923Z,12.00
2018-07-05T05:11:39.964Z,12.53
2018-07-05T05:14:19.819Z,11.53
2018-07-05T05:16:59.691Z,12.87
2018-07-05T05:19:39.376Z,12.63
2018-07-05T05:22:19.279Z,12.77
2018-07-05T05:24:58.979Z,13.40
2018-07-05T05:27:38.721Z,12.30
2018-07-05T05:30:18.410Z,11.93
2018-07-05T05:32:58.379Z,12.10
2018-07-05T05:35:38.072Z,11.63
2018-07-05T05:38:18.087Z,10.73
2018-07-05T05:40:58.165Z,12.00
2018-07-05T05:43:38.435Z,12.20
2018-07-05T05:46:18.091Z,11.87
2018-07-05T05:48:57.927Z,12.27
2018-07-05T05:51:37.688Z,11.33
2018-07-05T05:54:17.572Z,12.57
2018-07-05T05:56:57.179Z,11.97
2018-07-05T05:59:36.956Z,11.43
2018-07-05T06:02:16.776Z,12.77
2018-07-05T06:04:56.632Z,11.03
2018-07-05T06:07:36.372Z,10.63
2018-07-05T06:10:16.281Z,11.90
2018-07-05T06:12:55.907Z,12.23
2018-07-05T06:15:36.203Z,11.40
2018-07-05T06:18:15.948Z,10.03
2018-07-05T06:20:55.740Z,10.50
2018-07-05T06:23:35.459Z,9.47
2018-07-05T06:26:15.505Z,11.10
2018-07-05T06:28:55.348Z,9.23
2018-07-05T06:31:35.184Z,11.13
2018-07-05T06:34:15.046Z,9.50
2018-07-05T06:36:54.879Z,10.33
2018-07-05T06:39:34.777Z,10.23
2018-07-05T06:42:14.625Z,10.70
2018-07-05T06:44:54.418Z,9.73
2018-07-05T06:47:34.981Z,10.73
2018-07-05T06:50:14.808Z,10.50
2018-07-05T06:52:54.454Z,11.20
2018-07-05T06:55:34.327Z,9.73
2018-07-05T06:58:14.581Z,8.93
2018-07-05T07:00:54.487Z,9.10
2018-07-05T07:03:34.339Z,9.10
2018-07-05T07:06:14.044Z,7.77
2018-07-05T07:08:54.087Z,8.43
2018-07-05T07:11:33.567Z,8.23
2018-07-05T07:14:13.380Z,9.53
2018-07-05T07:16:53.105Z,9.10
2018-07-05T07:19:32.867Z,9.40
2018-07-05T07:22:12.621Z,9.37
2018-07-05T07:24:52.546Z,8.80
2018-07-05T07:27:32.323Z,9.60
2018-07-05T07:30:12.353Z,8.10
2018-07-05T07:32:52.243Z,9.87
2018-07-05T07:35:32.044Z,7.33
2018-07-05T07:38:12.018Z,8.10
2018-07-05T07:40:52.132Z,8.10
2018-07-05T07:43:19.613Z,5.43
2018-07-05T07:45:46.975Z,5.27
2018-07-05T07:48:14.495Z,5.30
2018-07-05T07:50:41.784Z,5.30
2018-07-05T07:53:09.077Z,5.27
2018-07-05T07:55:36.386Z,4.70
2018-07-05T07:58:03.666Z,4.80
2018-07-05T08:00:30.952Z,3.67
2018-07-05T08:02:58.269Z,4.00
2018-07-05T08:05:25.574Z,3.90
2018-07-05T08:07:53.232Z,3.53
2018-07-05T08:10:20.800Z,2.73
2018-07-05T08:12:48.477Z,3.20
2018-07-05T08:15:15.775Z,3.40
2018-07-05T08:17:43.276Z,3.03
2018-07-05T08:20:10.803Z,3.07
2018-07-05T08:22:38.094Z,3.13
2018-07-05T08:25:05.408Z,3.43
2018-07-05T08:27:32.703Z,2.33
2018-07-05T08:29:59.984Z,3.47
2018-07-05T08:32:27.505Z,2.97
2018-07-05T08:34:54.875Z,3.00
2018-07-05T08:37:22.184Z,2.50
2018-07-05T08:39:49.868Z,2.67
2018-07-05T08:42:17.162Z,3.20
2018-07-05T08:44:44.560Z,2.73
2018-07-05T08:47:12.040Z,3.20
2018-07-05T08:49:39.331Z,2.93
2018-07-05T08:52:06.724Z,2.80
2018-07-05T08:54:34.224Z,3.27
2018-07-05T08:57:01.577Z,3.30
2018-07-05T08:59:28.855Z,2.77
2018-07-05T09:01:56.674Z,2.80
2018-07-05T09:04:24.044Z,3.80
2018-07-05T09:06:51.323Z,2.87
2018-07-05T09:09:18.761Z,2.60
2018-07-05T09:11:46.161Z,3.20
2018-07-05T09:14:13.452Z,3.00
2018-07-05T09:16:40.780Z,3.33
2018-07-05T09:19:08.056Z,3.50
2018-07-05T09:21:35.356Z,3.77
2018-07-05T09:24:03.797Z,3.80
2018-07-05T09:26:31.128Z,2.43
2018-07-05T09:28:58.430Z,2.90
2018-07-05T09:31:25.970Z,3.40
2018-07-05T09:33:53.287Z,3.63
2018-07-05T09:36:20.601Z,3.00
2018-07-05T09:38:48.106Z,3.10
2018-07-05T09:41:15.380Z,3.23
2018-07-05T09:43:42.667Z,2.83
2018-07-05T09:46:10.388Z,2.87
2018-07-05T09:48:37.677Z,2.97
2018-07-05T09:51:05.284Z,2.13
2018-07-05T09:53:32.768Z,3.03
2018-07-05T09:56:00.206Z,2.70
2018-07-05T09:58:27.492Z,2.33
2018-07-05T10:00:54.875Z,2.93
2018-07-05T10:03:22.885Z,3.20
2018-07-05T10:05:50.236Z,2.97
2018-07-05T10:08:18.643Z,2.47
2018-07-05T10:10:45.944Z,2.87
2018-07-05T10:13:13.778Z,2.57
2018-07-05T10:15:41.524Z,2.77
2018-07-05T10:18:08.880Z,3.10
2018-07-05T10:20:36.164Z,2.40
2018-07-05T10:23:03.695Z,3.00
2018-07-05T10:25:31.050Z,3.00
2018-07-05T10:27:58.335Z,3.43
2018-07-05T10:30:38.439Z,3.50
2018-07-05T10:33:18.079Z,3.20
2018-07-05T10:35:45.550Z,3.20
2018-07-05T10:38:12.834Z,3.10
2018-07-05T10:40:52.776Z,3.70
2018-07-05T10:43:32.519Z,2.97
2018-07-05T10:46:12.366Z,2.90
2018-07-05T10:48:52.304Z,2.80
2018-07-05T10:51:32.224Z,3.20
2018-07-05T10:54:11.959Z,3.00
2018-07-05T10:56:51.855Z,3.03
2018-07-05T10:59:31.616Z,2.70
2018-07-05T11:02:11.931Z,3.00
2018-07-05T11:04:51.857Z,3.30
2018-07-05T11:07:31.752Z,3.10
2018-07-05T11:10:11.487Z,3.40
2018-07-05T11:12:51.424Z,2.80
2018-07-05T11:15:31.290Z,4.10
2018-07-05T11:18:11.423Z,3.70
2018-07-05T11:20:51.011Z,3.33
2018-07-05T11:23:30.719Z,3.80
2018-07-05T11:26:10.496Z,4.10
2018-07-05T11:28:50.219Z,4.00
2018-07-05T11:31:30.073Z,3.50
2018-07-05T11:34:09.924Z,3.83
2018-07-05T11:36:49.745Z,3.97
2018-07-05T11:39:29.643Z,3.83
2018-07-05T11:42:09.364Z,3.90
2018-07-05T11:44:49.193Z,3.90
2018-07-05T11:47:28.852Z,4.10
2018-07-05T11:50:08.477Z,4.53
2018-07-05T11:52:48.312Z,3.90
2018-07-05T11:55:28.384Z,4.80
2018-07-05T11:58:08.120Z,4.70
2018-07-05T12:00:48.367Z,5.00
2018-07-05T12:03:28.105Z,5.57
2018-07-05T12:06:07.728Z,5.23
2018-07-05T12:08:47.763Z,5.20
2018-07-05T12:11:27.659Z,6.80
2018-07-05T12:14:07.292Z,6.80
2018-07-05T12:16:47.247Z,7.07
2018-07-05T12:19:26.831Z,6.80
2018-07-05T12:22:06.867Z,7.17
2018-07-05T12:24:46.533Z,7.73
2018-07-05T12:27:26.548Z,7.27
2018-07-05T12:30:06.677Z,8.80
2018-07-05T12:32:46.372Z,9.50
2018-07-05T12:35:26.132Z,8.10
2018-07-05T12:38:05.894Z,7.63
2018-07-05T12:40:45.567Z,8.10
2018-07-05T12:43:25.215Z,7.33
2018-07-05T12:46:04.993Z,5.97
2018-07-05T12:48:44.872Z,5.63
2018-07-05T12:51:24.627Z,6.30
2018-07-05T12:54:04.587Z,6.30
2018-07-05T12:56:44.400Z,6.10
2018-07-05T12:59:24.707Z,6.67
2018-07-05T13:02:04.572Z,8.47
2018-07-05T13:04:44.434Z,8.40
2018-07-05T13:07:24.260Z,9.43
2018-07-05T13:10:04.308Z,8.80
2018-07-05T13:12:44.305Z,8.67
2018-07-05T13:15:24.151Z,8.13
2018-07-05T13:18:03.756Z,9.03
2018-07-05T13:20:43.952Z,8.90
2018-07-05T13:23:23.560Z,9.50
2018-07-05T13:26:03.293Z,9.93
2018-07-05T13:28:43.053Z,10.47
2018-07-05T13:31:22.831Z,9.50
2018-07-05T13:34:02.649Z,9.60
2018-07-05T13:36:42.669Z,8.40
2018-07-05T13:39:22.320Z,8.80
2018-07-05T13:42:01.932Z,10.50
2018-07-05T13:44:41.684Z,9.80
2018-07-05T13:47:21.886Z,10.00
2018-07-05T13:50:01.493Z,10.30
2018-07-05T13:52:42.652Z,9.83
2018-07-05T13:55:22.985Z,8.23
2018-07-05T13:58:04.083Z,8.10
2018-07-05T14:00:44.146Z,7.43
2018-07-05T14:03:24.655Z,7.60
2018-07-05T14:06:04.775Z,7.73
2018-07-05T14:08:45.202Z,7.30
2018-07-05T14:11:26.657Z,7.00
2018-07-05T14:14:06.685Z,6.27
2018-07-05T14:16:47.168Z,6.30
2018-07-05T14:19:28.655Z,6.30
2018-07-05T14:22:10.059Z,6.77
2018-07-05T14:24:50.671Z,5.20
2018-07-05T14:27:31.457Z,6.00
2018-07-05T14:30:11.139Z,5.90
2018-07-05T14:32:51.259Z,4.43
2018-07-05T14:35:31.312Z,5.40
2018-07-05T14:38:12.049Z,4.77
2018-07-05T14:40:52.533Z,4.80
2018-07-05T14:43:32.256Z,5.30
2018-07-05T14:46:13.073Z,4.43
2018-07-05T14:48:54.463Z,5.27
2018-07-05T14:51:35.423Z,5.40
2018-07-05T14:54:16.965Z,5.93
2018-07-05T14:56:57.670Z,4.93
2018-07-05T14:59:37.736Z,5.20
2018-07-05T15:02:17.432Z,4.53
2018-07-05T15:04:57.114Z,5.57
2018-07-05T15:07:36.892Z,5.53
2018-07-05T15:10:16.821Z,5.67
2018-07-05T15:12:56.800Z,5.20
2018-07-05T15:15:36.441Z,5.20
2018-07-05T15:18:16.338Z,5.80
2018-07-05T15:20:56.190Z,5.03
2018-07-05T15:23:36.156Z,4.30
2018-07-05T15:26:15.980Z,5.30
2018-07-05T15:28:56.371Z,6.20
2018-07-05T15:31:36.244Z,5.70
2018-07-05T15:34:16.449Z,6.03
2018-07-05T15:36:56.240Z,4.47
2018-07-05T15:39:36.002Z,4.77
2018-07-05T15:42:15.795Z,5.90
2018-07-05T15:44:55.642Z,4.90
2018-07-05T15:47:35.357Z,6.77
2018-07-05T15:50:15.076Z,5.27
2018-07-05T15:52:54.936Z,5.97
2018-07-05T15:55:34.766Z,6.03
2018-07-05T15:58:14.532Z,5.60
2018-07-05T16:00:54.608Z,7.73
2018-07-05T16:03:35.302Z,6.43
2018-07-05T16:06:15.231Z,7.17
2018-07-05T16:08:54.887Z,7.13
2018-07-05T16:11:34.796Z,6.33
2018-07-05T16:14:14.852Z,7.80
2018-07-05T16:16:54.649Z,8.50
2018-07-05T16:19:34.608Z,8.10
2018-07-05T16:22:14.296Z,8.73
2018-07-05T16:24:54.063Z,7.93
2018-07-05T16:27:34.114Z,7.43
2018-07-05T16:30:13.852Z,9.23
2018-07-05T16:32:54.527Z,8.03
2018-07-05T16:35:34.374Z,7.93
2018-07-05T16:38:14.323Z,7.53
2018-07-05T16:40:55.079Z,8.67
2018-07-05T16:43:35.370Z,7.63
2018-07-05T16:46:15.264Z,7.50
2018-07-05T16:48:55.145Z,7.53
2018-07-05T16:51:34.914Z,8.80
2018-07-05T16:54:14.808Z,7.93
2018-07-05T16:56:54.609Z,7.23
2018-07-05T16:59:34.604Z,8.30
2018-07-05T17:02:14.404Z,8.30
2018-07-05T17:04:54.220Z,7.53
2018-07-05T17:07:33.816Z,8.03
2018-07-05T17:10:13.928Z,6.73
2018-07-05T17:12:53.839Z,7.60
2018-07-05T17:15:33.777Z,7.70
2018-07-05T17:18:13.535Z,8.47
2018-07-05T17:20:53.408Z,8.37
2018-07-05T17:23:33.116Z,6.87
2018-07-05T17:26:13.038Z,6.33
2018-07-05T17:28:52.935Z,6.20
2018-07-05T17:31:32.611Z,5.43
2018-07-05T17:34:12.572Z,4.23
2018-07-05T17:36:52.214Z,5.23
2018-07-05T17:39:31.921Z,5.40
2018-07-05T17:42:11.993Z,6.50
2018-07-05T17:44:51.744Z,5.33
2018-07-05T17:47:31.404Z,6.37
2018-07-05T17:50:11.255Z,7.27
2018-07-05T17:52:50.912Z,6.63
2018-07-05T17:55:30.692Z,4.73
2018-07-05T17:58:11.592Z,4.67
2018-07-05T18:00:51.359Z,5.00
2018-07-05T18:03:31.243Z,4.30
2018-07-05T18:06:11.327Z,4.87
2018-07-05T18:08:51.412Z,5.00
2018-07-05T18:11:31.109Z,5.33
2018-07-05T18:14:10.944Z,5.77
2018-07-05T18:16:50.966Z,4.87
2018-07-05T18:19:31.199Z,5.43
2018-07-05T18:22:11.058Z,4.80
2018-07-05T18:24:51.214Z,5.30
2018-07-05T18:27:30.927Z,5.97
2018-07-05T18:30:10.795Z,5.20
2018-07-05T18:32:50.673Z,6.07
2018-07-05T18:35:30.472Z,5.87
2018-07-05T18:38:10.223Z,6.53
2018-07-05T18:40:49.884Z,9.00
2018-07-05T18:43:29.529Z,6.60
2018-07-05T18:46:09.481Z,6.30
2018-07-05T18:48:49.626Z,6.57
2018-07-05T18:51:29.407Z,9.40
2018-07-05T18:54:09.418Z,8.40
2018-07-05T18:56:49.563Z,9.97
2018-07-05T18:59:29.300Z,9.77
2018-07-05T19:02:09.123Z,11.60
2018-07-05T19:04:48.880Z,10.70
2018-07-05T19:07:28.880Z,10.20
2018-07-05T19:10:08.711Z,9.90
2018-07-05T19:12:48.753Z,8.50
2018-07-05T19:15:28.616Z,8.37
2018-07-05T19:18:08.649Z,8.03
2018-07-05T19:20:48.726Z,8.73
2018-07-05T19:23:28.568Z,9.10
2018-07-05T19:26:08.256Z,9.27
2018-07-05T19:28:48.060Z,9.10
2018-07-05T19:31:27.987Z,8.60
2018-07-05T19:34:07.808Z,8.00
2018-07-05T19:36:47.635Z,7.50
2018-07-05T19:39:27.734Z,8.13
2018-07-05T19:42:07.471Z,8.40
2018-07-05T19:44:47.448Z,7.93
2018-07-05T19:47:27.156Z,7.17
2018-07-05T19:50:07.235Z,7.90
2018-07-05T19:52:47.210Z,8.53
2018-07-05T19:55:27.356Z,8.57
2018-07-05T19:58:07.009Z,8.77
2018-07-05T20:00:47.250Z,8.93
2018-07-05T20:03:27.008Z,7.57
2018-07-05T20:06:06.867Z,7.73
2018-07-05T20:08:46.669Z,7.20
2018-07-05T20:11:26.596Z,8.03
2018-07-05T20:14:06.400Z,8.07
2018-07-05T20:16:46.594Z,7.53
2018-07-05T20:19:26.346Z,8.63
2018-07-05T20:22:10.366Z,8.03
2018-07-05T20:24:49.976Z,7.53
2018-07-05T20:27:30.012Z,7.80
2018-07-05T20:30:09.821Z,7.13
2018-07-05T20:32:50.023Z,7.63
2018-07-05T20:35:29.961Z,7.20
2018-07-05T20:38:10.134Z,9.27
2018-07-05T20:40:49.963Z,8.43
2018-07-05T20:43:29.927Z,7.30
2018-07-05T20:46:09.731Z,8.13
2018-07-05T20:48:49.716Z,8.57
2018-07-05T20:51:29.639Z,7.67
2018-07-05T20:54:09.619Z,8.03
2018-07-05T20:56:49.443Z,9.40
2018-07-05T20:59:29.720Z,8.50
2018-07-05T21:02:09.764Z,8.23
2018-07-05T21:04:49.796Z,8.13
2018-07-05T21:07:29.559Z,8.20
2018-07-05T21:10:09.416Z,9.33
2018-07-05T21:12:49.201Z,9.10
2018-07-05T21:15:29.151Z,9.37
2018-07-05T21:18:08.875Z,9.67
2018-07-05T21:20:48.812Z,8.90
2018-07-05T21:23:28.933Z,8.93
2018-07-05T21:26:08.796Z,8.90
2018-07-05T21:28:48.453Z,10.03
2018-07-05T21:31:28.908Z,8.73
2018-07-05T21:34:08.657Z,8.33
2018-07-05T21:36:48.687Z,8.30
2018-07-05T21:39:28.373Z,9.40
2018-07-05T21:42:08.352Z,8.93
2018-07-05T21:44:48.065Z,8.37
2018-07-05T21:47:27.928Z,9.97
2018-07-05T21:50:07.984Z,9.30
2018-07-05T21:52:47.797Z,9.17
2018-07-05T21:55:27.604Z,9.80
2018-07-05T21:58:07.394Z,11.40
2018-07-05T22:00:47.151Z,10.73
2018-07-05T22:03:26.927Z,11.50
2018-07-05T22:06:06.797Z,9.57
2018-07-05T22:08:47.014Z,10.30
2018-07-05T22:11:26.595Z,10.17
2018-07-05T22:14:06.770Z,10.27
2018-07-05T22:16:52.000Z,10.53
2018-07-05T22:19:36.992Z,8.50
2018-07-05T22:22:21.977Z,10.20
2018-07-05T22:25:07.371Z,10.00
2018-07-05T22:27:52.540Z,10.20
2018-07-05T22:30:37.716Z,8.83
2018-07-05T22:33:17.376Z,9.63
2018-07-05T22:35:57.036Z,9.50
2018-07-05T22:38:36.640Z,9.80
2018-07-05T22:41:16.488Z,10.93
2018-07-05T22:43:56.260Z,10.27
2018-07-05T22:46:35.979Z,9.63
2018-07-05T22:49:15.880Z,9.43
2018-07-05T22:51:55.908Z,9.87
2018-07-05T22:54:35.704Z,10.07
2018-07-05T22:57:15.515Z,10.40
2018-07-05T22:59:55.235Z,10.00
2018-07-05T23:02:34.997Z,10.90
2018-07-05T23:05:14.801Z,10.10
2018-07-05T23:07:54.507Z,9.60
2018-07-05T23:10:34.388Z,9.67
2018-07-05T23:13:14.464Z,9.47
2018-07-05T23:15:54.067Z,11.10
2018-07-05T23:18:34.202Z,10.73
2018-07-05T23:21:14.012Z,8.27
2018-07-05T23:23:53.772Z,8.93
2018-07-05T23:26:33.427Z,10.33
2018-07-05T23:29:13.040Z,8.60
2018-07-05T23:31:53.003Z,8.80
2018-07-05T23:34:33.232Z,10.53
2018-07-05T23:37:13.092Z,9.80
2018-07-05T23:39:52.835Z,9.63
2018-07-05T23:42:33.264Z,9.23
2018-07-05T23:45:12.960Z,8.70
2018-07-05T23:47:52.680Z,9.00
2018-07-05T23:50:33.024Z,10.13
2018-07-05T23:53:12.795Z,8.83
2018-07-05T23:55:52.720Z,9.30
2018-07-05T23:58:32.608Z,9.00
